Wolseth, North Dakota
Current Conditions -  °F | °C
As of 10:58 AM on Wednesday 26 Nov 2014 (Local Time) from KMIB Reporting Station
Overcast Overcast  
Wind Chill: -9°   Ceiling: 2800
Heat Index:   Visibility: 10mi
Dew Point: -2°   Wind: 6mph
Humidity: 81%   Direction: 10°N
Pressure: 30.4"   Gusts: NA
Location:  48.5023°N, 101.303°W
Report Text: KMIB 261658Z AUTO 01005KT 10SM SCT016 OVC028 M16/M19 A3040 RMK AO2 VIS 1/4 RWY29 CIG 016V028 SLP346 T11651190
Loading
Personal Weather Stations






























Interactive Weather Map New forecast layout! Learn more

10-Day Weather Forecast

Advertisements
Track Severe Weather on mobile